createdAt,value
2019-02-12T00:02:25.493Z,83.13
2019-02-12T00:04:52.986Z,82.90
2019-02-12T00:07:20.463Z,82.40
2019-02-12T00:09:48.471Z,82.52
2019-02-12T00:12:15.975Z,82.85
2019-02-12T00:14:43.463Z,82.54
2019-02-12T00:17:10.936Z,83.12
2019-02-12T00:19:38.479Z,83.42
2019-02-12T00:22:05.957Z,82.67
2019-02-12T00:24:33.498Z,83.06
2019-02-12T00:27:00.951Z,82.94
2019-02-12T00:29:28.462Z,83.02
2019-02-12T00:31:55.960Z,82.66
2019-02-12T00:34:23.425Z,83.40
2019-02-12T00:36:50.868Z,83.86
2019-02-12T00:39:19.182Z,84.55
2019-02-12T00:41:46.663Z,85.89
2019-02-12T00:44:14.220Z,85.87
2019-02-12T00:46:41.654Z,85.43
2019-02-12T00:49:09.131Z,86.31
2019-02-12T00:51:36.664Z,86.40
2019-02-12T00:54:04.106Z,86.36
2019-02-12T00:56:31.612Z,86.90
2019-02-12T00:58:59.073Z,86.94
2019-02-12T01:01:26.578Z,87.66
2019-02-12T01:03:54.033Z,87.79
2019-02-12T01:06:21.489Z,87.68
2019-02-12T01:08:49.746Z,87.33
2019-02-12T01:11:17.213Z,87.79
2019-02-12T01:13:44.758Z,87.65
2019-02-12T01:16:12.180Z,87.53
2019-02-12T01:18:39.642Z,87.48
2019-02-12T01:21:07.121Z,87.19
2019-02-12T01:23:34.616Z,86.63
2019-02-12T01:26:02.111Z,86.33
2019-02-12T01:28:29.594Z,86.68
2019-02-12T01:30:57.118Z,86.07
2019-02-12T01:33:24.582Z,85.63
2019-02-12T01:35:52.102Z,85.01
2019-02-12T01:38:20.241Z,85.22
2019-02-12T01:40:47.751Z,85.59
2019-02-12T01:43:15.220Z,85.41
2019-02-12T01:45:42.756Z,85.07
2019-02-12T01:48:10.212Z,85.67
2019-02-12T01:50:37.682Z,86.53
2019-02-12T01:53:05.168Z,86.05
2019-02-12T01:55:32.690Z,86.23
2019-02-12T01:58:00.194Z,85.99
2019-02-12T02:00:27.615Z,85.84
2019-02-12T02:02:55.158Z,85.59
2019-02-12T02:05:22.623Z,85.54
2019-02-12T02:07:50.814Z,85.70
2019-02-12T02:10:18.301Z,86.56
2019-02-12T02:12:45.784Z,86.66
2019-02-12T02:15:13.282Z,87.37
2019-02-12T02:17:40.747Z,87.01
2019-02-12T02:20:09.655Z,86.97
2019-02-12T02:22:37.201Z,87.30
2019-02-12T02:25:04.728Z,87.36
2019-02-12T02:27:32.190Z,87.92
2019-02-12T02:29:59.670Z,87.87
2019-02-12T02:32:27.161Z,88.01
2019-02-12T02:34:54.646Z,87.91
2019-02-12T02:37:22.117Z,88.48
2019-02-12T02:39:49.584Z,88.69
2019-02-12T02:42:17.063Z,88.69
2019-02-12T02:44:44.517Z,89.07
2019-02-12T02:47:11.987Z,89.07
2019-02-12T02:49:39.455Z,88.97
2019-02-12T02:52:06.960Z,88.51
2019-02-12T02:54:34.421Z,87.69
2019-02-12T02:57:02.019Z,87.85
2019-02-12T02:59:29.489Z,88.04
2019-02-12T03:01:57.001Z,88.04
2019-02-12T03:04:24.484Z,87.69
2019-02-12T03:06:52.225Z,87.32
2019-02-12T03:09:19.706Z,87.62
2019-02-12T03:11:47.181Z,86.94
2019-02-12T03:14:14.634Z,86.22
2019-02-12T03:16:42.143Z,86.69
2019-02-12T03:19:09.588Z,87.32
2019-02-12T03:21:37.110Z,87.86
2019-02-12T03:24:04.577Z,87.67
2019-02-12T03:26:32.056Z,87.13
2019-02-12T03:28:59.557Z,86.86
2019-02-12T03:31:27.094Z,87.21
2019-02-12T03:33:54.585Z,87.46
2019-02-12T03:36:22.744Z,87.69
2019-02-12T03:38:50.192Z,86.95
2019-02-12T03:41:17.620Z,86.48
2019-02-12T03:43:45.090Z,86.90
2019-02-12T03:46:12.543Z,86.71
2019-02-12T03:48:40.009Z,87.07
2019-02-12T03:51:07.451Z,87.03
2019-02-12T03:53:34.904Z,87.08
2019-02-12T03:56:02.402Z,88.04
2019-02-12T03:58:29.870Z,88.27
2019-02-12T04:00:57.322Z,88.39
2019-02-12T04:03:24.806Z,88.90
2019-02-12T04:05:52.296Z,88.43
2019-02-12T04:08:19.747Z,88.05
2019-02-12T04:10:47.245Z,88.70
2019-02-12T04:13:14.776Z,89.41
2019-02-12T04:15:42.308Z,89.37
2019-02-12T04:18:09.773Z,89.25
2019-02-12T04:20:37.273Z,89.42
2019-02-12T04:23:04.762Z,88.97
2019-02-12T04:25:32.280Z,88.61
2019-02-12T04:27:59.769Z,88.38
2019-02-12T04:30:27.263Z,88.21
2019-02-12T04:32:54.777Z,88.12
2019-02-12T04:35:22.237Z,88.38
2019-02-12T04:37:49.705Z,88.74
2019-02-12T04:40:17.186Z,88.66
2019-02-12T04:42:44.714Z,88.75
2019-02-12T04:45:12.178Z,89.30
2019-02-12T04:47:39.658Z,89.50
2019-02-12T04:50:09.904Z,89.32
2019-02-12T04:52:37.471Z,89.14
2019-02-12T04:55:06.196Z,88.78
2019-02-12T04:57:32.494Z,88.69
2019-02-12T04:59:59.951Z,88.32
2019-02-12T05:02:27.417Z,87.74
2019-02-12T05:04:54.890Z,87.61
2019-02-12T05:07:22.382Z,87.49
2019-02-12T05:09:49.845Z,87.43
2019-02-12T05:12:18.421Z,87.70
2019-02-12T05:14:45.970Z,88.03
2019-02-12T05:17:13.488Z,87.61
2019-02-12T05:19:40.984Z,88.06
2019-02-12T05:22:08.483Z,88.04
2019-02-12T05:24:35.953Z,88.13
2019-02-12T05:27:03.411Z,88.32
2019-02-12T05:29:30.886Z,88.36
2019-02-12T05:31:58.336Z,87.77
2019-02-12T05:34:25.847Z,87.81
2019-02-12T05:36:53.367Z,88.10
2019-02-12T05:39:20.844Z,88.56
2019-02-12T05:41:48.315Z,88.50
2019-02-12T05:44:15.775Z,88.50
2019-02-12T05:46:44.236Z,88.52
2019-02-12T05:49:11.817Z,88.93
2019-02-12T05:51:39.314Z,89.05
2019-02-12T05:54:06.833Z,89.66
2019-02-12T05:56:34.353Z,89.44
2019-02-12T05:59:01.842Z,90.07
2019-02-12T06:01:29.316Z,89.83
2019-02-12T06:03:56.771Z,89.88
2019-02-12T06:06:24.238Z,90.42
2019-02-12T06:08:51.704Z,90.26
2019-02-12T06:11:19.225Z,90.21
2019-02-12T06:13:46.659Z,89.83
2019-02-12T06:16:14.119Z,89.70
2019-02-12T06:18:41.615Z,89.73
2019-02-12T06:21:09.096Z,89.42
2019-02-12T06:23:36.560Z,89.00
2019-02-12T06:26:04.032Z,88.90
2019-02-12T06:28:31.513Z,88.71
2019-02-12T06:30:59.006Z,88.22
2019-02-12T06:33:26.439Z,88.31
2019-02-12T06:35:53.967Z,88.51
2019-02-12T06:38:21.462Z,88.71
2019-02-12T06:40:48.921Z,88.33
2019-02-12T06:43:16.357Z,88.37
2019-02-12T06:45:43.857Z,88.14
2019-02-12T06:48:11.332Z,88.07
2019-02-12T06:50:38.836Z,88.17
2019-02-12T06:53:12.584Z,88.07
2019-02-12T06:55:34.976Z,88.07
2019-02-12T06:58:02.420Z,88.37
2019-02-12T07:00:29.900Z,88.52
2019-02-12T07:03:09.077Z,88.93
2019-02-12T07:05:36.558Z,89.07
2019-02-12T07:08:20.556Z,88.74
2019-02-12T07:10:48.047Z,88.46
2019-02-12T07:13:19.142Z,88.35
2019-02-12T07:15:46.607Z,88.25
2019-02-12T07:18:32.476Z,88.51
2019-02-12T07:21:13.651Z,88.72
2019-02-12T07:26:55.434Z,89.01
2019-02-12T07:32:47.301Z,88.85
2019-02-12T07:35:19.091Z,88.78
2019-02-12T07:37:50.978Z,89.01
2019-02-12T07:40:18.510Z,89.21
2019-02-12T07:42:54.299Z,89.22
2019-02-12T07:45:29.410Z,89.30
2019-02-12T07:48:05.591Z,89.30
2019-02-12T07:50:36.531Z,89.29
2019-02-12T07:53:17.727Z,89.30
2019-02-12T07:55:45.201Z,88.90
2019-02-12T07:58:26.366Z,89.02
2019-02-12T08:00:55.255Z,88.67
2019-02-12T08:03:44.053Z,88.87
2019-02-12T08:06:12.335Z,88.82
2019-02-12T08:09:09.378Z,88.96
2019-02-12T08:11:38.325Z,88.77
2019-02-12T08:14:23.352Z,89.13
2019-02-12T08:17:13.582Z,88.93
2019-02-12T08:19:58.081Z,89.31
2019-02-12T08:22:44.228Z,89.16
2019-02-12T08:25:31.274Z,88.98
2019-02-12T08:28:04.089Z,88.71
2019-02-12T08:30:35.163Z,88.92
2019-02-12T08:33:19.350Z,88.89
2019-02-12T08:35:57.016Z,88.92
2019-02-12T08:38:38.214Z,89.00
2019-02-12T08:41:05.687Z,88.91
2019-02-12T08:43:54.745Z,88.98
2019-02-12T08:46:48.885Z,89.45
2019-02-12T08:49:22.132Z,89.04
2019-02-12T08:51:57.166Z,89.02
2019-02-12T08:54:32.103Z,89.10
2019-02-12T08:57:05.072Z,89.36
2019-02-12T08:59:33.220Z,88.94
2019-02-12T09:02:10.624Z,89.10
2019-02-12T09:04:54.676Z,89.41
2019-02-12T09:07:40.860Z,89.15
2019-02-12T09:10:14.798Z,89.24
2019-02-12T09:13:00.728Z,89.21
2019-02-12T09:15:45.912Z,89.38
2019-02-12T09:18:34.155Z,90.19
2019-02-12T09:21:19.082Z,90.33
2019-02-12T09:24:03.638Z,90.24
2019-02-12T09:26:49.680Z,90.26
2019-02-12T09:29:22.675Z,90.36
2019-02-12T09:32:08.721Z,90.76
2019-02-12T09:34:47.860Z,90.04
2019-02-12T09:37:27.024Z,89.53
2019-02-12T09:40:01.358Z,89.59
2019-02-12T09:42:42.643Z,89.32
2019-02-12T09:45:14.755Z,89.00
2019-02-12T09:47:47.640Z,89.22
2019-02-12T09:50:16.554Z,89.11
2019-02-12T09:53:10.568Z,88.88
2019-02-12T09:56:01.621Z,88.96
2019-02-12T09:58:32.756Z,88.72
2019-02-12T10:01:00.221Z,88.40
2019-02-12T10:03:44.950Z,88.24
2019-02-12T10:06:29.309Z,87.99
2019-02-12T10:09:03.163Z,87.87
2019-02-12T10:11:30.652Z,88.06
2019-02-12T10:14:16.798Z,87.65
2019-02-12T10:16:45.091Z,87.36
2019-02-12T10:19:23.456Z,87.18
2019-02-12T10:22:01.742Z,87.04
2019-02-12T10:24:35.612Z,87.08
2019-02-12T10:27:27.564Z,86.78
2019-02-12T10:30:06.620Z,86.70
2019-02-12T10:32:33.505Z,86.55
2019-02-12T10:35:01.000Z,86.31
2019-02-12T10:37:28.450Z,86.54
2019-02-12T10:39:55.918Z,86.58
2019-02-12T10:42:23.375Z,86.72
2019-02-12T10:44:50.858Z,86.45
2019-02-12T10:47:18.353Z,86.23
2019-02-12T10:49:45.800Z,86.50
2019-02-12T10:52:13.292Z,86.16
2019-02-12T10:54:40.768Z,86.08
2019-02-12T10:57:08.254Z,85.98
2019-02-12T10:59:35.717Z,85.72
2019-02-12T11:02:03.175Z,85.92
2019-02-12T11:04:30.660Z,85.61
2019-02-12T11:06:58.099Z,85.14
2019-02-12T11:09:25.578Z,85.46
2019-02-12T11:11:53.057Z,85.29
2019-02-12T11:14:20.596Z,85.07
2019-02-12T11:16:48.037Z,84.97
2019-02-12T11:19:15.522Z,85.00
2019-02-12T11:21:42.984Z,85.17
2019-02-12T11:24:10.451Z,85.49
2019-02-12T11:26:37.879Z,85.43
2019-02-12T11:29:05.339Z,85.20
2019-02-12T11:31:32.828Z,84.68
2019-02-12T11:34:00.282Z,85.05
2019-02-12T11:36:27.782Z,84.99
2019-02-12T11:38:55.232Z,84.52
2019-02-12T11:41:22.715Z,84.70
2019-02-12T11:43:50.145Z,84.28
2019-02-12T11:46:17.629Z,84.18
2019-02-12T11:48:45.086Z,83.78
2019-02-12T11:51:12.549Z,83.87
2019-02-12T11:53:40.031Z,83.43
2019-02-12T11:56:07.501Z,82.74
2019-02-12T11:58:34.980Z,82.60
2019-02-12T12:01:02.501Z,82.80
2019-02-12T12:03:29.982Z,82.81
2019-02-12T12:05:57.455Z,82.88
2019-02-12T12:08:24.941Z,82.86
2019-02-12T12:10:52.442Z,82.39
2019-02-12T12:13:19.914Z,81.78
2019-02-12T12:15:47.363Z,81.43
2019-02-12T12:18:14.850Z,81.11
2019-02-12T12:20:42.277Z,81.60
2019-02-12T12:23:10.440Z,80.93
2019-02-12T12:25:38.102Z,81.01
2019-02-12T12:28:05.545Z,80.54
2019-02-12T12:30:32.979Z,80.25
2019-02-12T12:33:00.480Z,79.98
2019-02-12T12:35:27.932Z,80.43
2019-02-12T12:37:55.404Z,79.49
2019-02-12T12:40:22.855Z,79.36
2019-02-12T12:42:50.351Z,78.58
2019-02-12T12:45:18.790Z,78.01
2019-02-12T12:47:46.307Z,78.03
2019-02-12T12:50:13.762Z,77.96
2019-02-12T12:52:42.218Z,78.42
2019-02-12T12:55:09.682Z,78.06
2019-02-12T12:57:41.836Z,78.30
2019-02-12T13:00:07.459Z,77.96
2019-02-12T13:02:34.943Z,76.76
2019-02-12T13:05:02.778Z,76.50
2019-02-12T13:07:29.900Z,77.16
2019-02-12T13:09:57.377Z,77.77
2019-02-12T13:12:24.889Z,78.22
2019-02-12T13:14:52.355Z,77.48
2019-02-12T13:17:19.882Z,77.12
2019-02-12T13:19:47.357Z,76.59
2019-02-12T13:22:14.845Z,76.34
2019-02-12T13:24:42.345Z,76.09
2019-02-12T13:27:10.518Z,76.93
2019-02-12T13:29:37.959Z,76.11
2019-02-12T13:32:05.434Z,76.21
2019-02-12T13:34:32.882Z,75.20
2019-02-12T13:37:00.362Z,76.03
2019-02-12T13:39:27.838Z,76.42
2019-02-12T13:41:55.355Z,77.13
2019-02-12T13:44:22.827Z,76.06
2019-02-12T13:46:50.284Z,76.72
2019-02-12T13:49:17.775Z,77.13
2019-02-12T13:51:45.249Z,76.30
2019-02-12T13:54:12.727Z,76.32
2019-02-12T13:56:40.208Z,75.69
2019-02-12T13:59:07.665Z,76.18
2019-02-12T14:01:35.086Z,75.40
2019-02-12T14:04:03.717Z,75.00
2019-02-12T14:06:30.038Z,75.93
2019-02-12T14:08:57.639Z,75.75
2019-02-12T14:11:25.087Z,76.00
2019-02-12T14:13:52.534Z,75.71
2019-02-12T14:16:19.992Z,75.72
2019-02-12T14:18:47.498Z,75.80
2019-02-12T14:21:14.957Z,75.80
2019-02-12T14:23:43.000Z,74.98
2019-02-12T14:26:10.495Z,74.39
2019-02-12T14:28:37.945Z,75.69
2019-02-12T14:31:05.419Z,73.58
2019-02-12T14:33:32.858Z,73.48
2019-02-12T14:36:00.353Z,73.10
2019-02-12T14:38:27.829Z,72.69
2019-02-12T14:40:55.321Z,71.63
2019-02-12T14:43:22.826Z,71.17
2019-02-12T14:45:50.348Z,71.51
2019-02-12T14:48:17.788Z,71.86
2019-02-12T14:50:45.230Z,71.65
2019-02-12T14:53:13.480Z,71.94
2019-02-12T14:55:40.956Z,71.08
2019-02-12T14:58:08.442Z,71.71
2019-02-12T15:00:35.899Z,72.06
2019-02-12T15:03:03.339Z,71.45
2019-02-12T15:05:30.833Z,70.92
2019-02-12T15:07:58.315Z,71.37
2019-02-12T15:10:25.748Z,72.02
2019-02-12T15:12:53.241Z,71.31
2019-02-12T15:15:20.738Z,71.36
2019-02-12T15:17:48.214Z,71.42
2019-02-12T15:20:15.672Z,71.88
2019-02-12T15:22:43.149Z,72.02
2019-02-12T15:25:12.426Z,71.93
2019-02-12T15:27:39.882Z,72.70
2019-02-12T15:30:09.129Z,72.91
2019-02-12T15:32:36.561Z,73.23
2019-02-12T15:35:04.049Z,73.23
2019-02-12T15:37:31.512Z,73.50
2019-02-12T15:39:58.998Z,73.30
2019-02-12T15:42:26.445Z,73.67
2019-02-12T15:44:53.908Z,74.11
2019-02-12T15:47:21.363Z,73.63
2019-02-12T15:49:48.831Z,74.12
2019-02-12T15:52:16.308Z,74.09
2019-02-12T15:54:44.818Z,74.59
2019-02-12T15:57:12.263Z,74.84
2019-02-12T15:59:39.690Z,75.10
2019-02-12T16:02:07.133Z,75.15
2019-02-12T16:04:34.578Z,74.63
2019-02-12T16:07:02.027Z,74.33
2019-02-12T16:09:31.146Z,75.03
2019-02-12T16:11:56.936Z,75.71
2019-02-12T16:14:24.421Z,76.57
2019-02-12T16:16:53.888Z,76.68
2019-02-12T16:19:19.359Z,77.28
2019-02-12T16:21:46.851Z,76.52
2019-02-12T16:24:14.347Z,76.62
2019-02-12T16:26:41.832Z,77.05
2019-02-12T16:29:09.344Z,77.51
2019-02-12T16:31:36.778Z,77.89
2019-02-12T16:34:04.270Z,78.56
2019-02-12T16:36:34.516Z,79.05
2019-02-12T16:39:01.952Z,78.30
2019-02-12T16:41:29.420Z,78.87
2019-02-12T16:43:56.885Z,78.44
2019-02-12T16:46:24.418Z,79.55
2019-02-12T16:48:51.892Z,79.49
2019-02-12T16:51:19.382Z,79.95
2019-02-12T16:53:46.865Z,80.79
2019-02-12T16:56:14.355Z,80.89
2019-02-12T16:58:41.802Z,81.21
2019-02-12T17:01:09.317Z,81.31
2019-02-12T17:03:36.803Z,81.27
2019-02-12T17:06:04.269Z,81.65
2019-02-12T17:08:31.729Z,82.19
2019-02-12T17:10:59.182Z,81.50
2019-02-12T17:13:26.643Z,81.31
2019-02-12T17:15:54.162Z,81.27
2019-02-12T17:18:21.671Z,81.64
2019-02-12T17:20:49.466Z,82.12
2019-02-12T17:23:16.947Z,81.66
2019-02-12T17:25:44.424Z,81.66
2019-02-12T17:28:11.911Z,81.36
2019-02-12T17:30:39.363Z,81.21
2019-02-12T17:33:06.811Z,81.87
2019-02-12T17:35:34.260Z,81.72
2019-02-12T17:38:01.704Z,81.44
2019-02-12T17:40:29.163Z,81.03
2019-02-12T17:42:57.541Z,81.24
2019-02-12T17:45:24.980Z,81.97
2019-02-12T17:47:52.446Z,82.43
2019-02-12T17:50:19.923Z,81.95
2019-02-12T17:52:47.431Z,81.49
2019-02-12T17:55:14.893Z,80.70
2019-02-12T17:57:42.363Z,81.36
2019-02-12T18:00:11.599Z,81.05
2019-02-12T18:02:39.143Z,80.86
2019-02-12T18:05:06.622Z,81.30
2019-02-12T18:07:34.109Z,81.60
2019-02-12T18:10:01.568Z,82.36
2019-02-12T18:12:29.081Z,82.09
2019-02-12T18:14:56.550Z,82.34
2019-02-12T18:17:24.012Z,81.73
2019-02-12T18:19:51.463Z,82.04
2019-02-12T18:22:18.934Z,82.36
2019-02-12T18:24:46.434Z,82.00
2019-02-12T18:27:14.907Z,81.74
2019-02-12T18:29:42.457Z,81.87
2019-02-12T18:32:09.911Z,81.81
2019-02-12T18:34:37.359Z,81.26
2019-02-12T18:37:04.880Z,80.91
2019-02-12T18:39:32.315Z,81.49
2019-02-12T18:41:59.772Z,81.32
2019-02-12T18:44:27.235Z,81.03
2019-02-12T18:46:54.738Z,81.46
2019-02-12T18:49:22.220Z,81.82
2019-02-12T18:51:49.700Z,81.15
2019-02-12T18:54:17.175Z,80.80
2019-02-12T18:56:44.623Z,80.96
2019-02-12T18:59:12.079Z,80.39
2019-02-12T19:01:39.535Z,80.88
2019-02-12T19:04:07.027Z,80.69
2019-02-12T19:06:34.499Z,80.41
2019-02-12T19:09:01.953Z,80.14
2019-02-12T19:11:29.475Z,80.08
2019-02-12T19:13:56.939Z,80.84
2019-02-12T19:16:24.424Z,80.96
2019-02-12T19:18:51.886Z,81.00
2019-02-12T19:21:19.337Z,81.36
2019-02-12T19:23:47.653Z,81.00
2019-02-12T19:26:15.266Z,80.47
2019-02-12T19:28:42.706Z,80.32
2019-02-12T19:31:10.165Z,79.72
2019-02-12T19:33:37.643Z,79.77
2019-02-12T19:36:05.125Z,79.49
2019-02-12T19:38:32.626Z,79.25
2019-02-12T19:41:00.082Z,79.80
2019-02-12T19:43:27.533Z,80.64
2019-02-12T19:45:55.042Z,80.77
2019-02-12T19:48:22.506Z,80.97
2019-02-12T19:50:49.967Z,80.74
2019-02-12T19:53:17.471Z,80.59
2019-02-12T19:55:44.961Z,80.13
2019-02-12T19:58:12.401Z,81.28
2019-02-12T20:00:39.890Z,80.80
2019-02-12T20:03:07.336Z,81.55
2019-02-12T20:05:34.798Z,81.29
2019-02-12T20:08:02.310Z,81.73
2019-02-12T20:10:29.745Z,81.74
2019-02-12T20:12:57.224Z,82.42
2019-02-12T20:15:24.655Z,81.87
2019-02-12T20:17:52.124Z,81.99
2019-02-12T20:20:20.204Z,82.10
2019-02-12T20:22:47.681Z,82.40
2019-02-12T20:25:15.142Z,82.03
2019-02-12T20:27:42.582Z,82.61
2019-02-12T20:30:12.707Z,82.26
2019-02-12T20:32:40.194Z,82.85
2019-02-12T20:35:07.715Z,82.17
2019-02-12T20:37:35.205Z,82.75
2019-02-12T20:40:02.684Z,82.74
2019-02-12T20:42:31.663Z,83.02
2019-02-12T20:44:59.156Z,83.75
2019-02-12T20:47:26.627Z,83.91
2019-02-12T20:49:54.093Z,84.21
2019-02-12T20:52:21.507Z,84.36
2019-02-12T20:54:48.957Z,84.00
2019-02-12T20:57:16.442Z,83.41
2019-02-12T20:59:43.922Z,83.40
2019-02-12T21:02:11.392Z,83.54
2019-02-12T21:04:38.860Z,83.52
2019-02-12T21:07:06.331Z,83.09
2019-02-12T21:09:34.504Z,83.18
2019-02-12T21:12:02.087Z,83.41
2019-02-12T21:14:29.578Z,83.62
2019-02-12T21:16:57.031Z,84.00
2019-02-12T21:19:24.523Z,83.46
2019-02-12T21:21:52.029Z,83.23
2019-02-12T21:24:19.525Z,83.25
2019-02-12T21:26:47.005Z,83.38
2019-02-12T21:29:14.460Z,83.42
2019-02-12T21:31:41.938Z,83.47
2019-02-12T21:34:09.483Z,83.75
2019-02-12T21:36:36.957Z,83.50
2019-02-12T21:39:04.387Z,83.46
2019-02-12T21:41:31.850Z,83.59
2019-02-12T21:43:59.328Z,83.29
2019-02-12T21:46:26.816Z,83.65
2019-02-12T21:48:54.298Z,83.15
2019-02-12T21:51:21.968Z,83.49
2019-02-12T21:53:49.435Z,82.91
2019-02-12T21:56:16.891Z,83.78
2019-02-12T21:58:44.481Z,83.38
2019-02-12T22:01:11.975Z,83.12
2019-02-12T22:03:39.504Z,83.27
2019-02-12T22:06:06.946Z,83.15
2019-02-12T22:08:34.401Z,82.70
2019-02-12T22:11:01.874Z,83.21
2019-02-12T22:13:29.348Z,83.16
2019-02-12T22:15:56.839Z,83.46
2019-02-12T22:18:24.303Z,83.32
2019-02-12T22:20:52.529Z,83.47
2019-02-12T22:23:20.013Z,83.63
2019-02-12T22:25:47.535Z,83.55
2019-02-12T22:28:15.015Z,83.32
2019-02-12T22:30:42.509Z,83.81
2019-02-12T22:33:10.024Z,83.91
2019-02-12T22:35:37.489Z,83.57
2019-02-12T22:38:04.990Z,83.49
2019-02-12T22:40:32.464Z,83.41
2019-02-12T22:42:59.952Z,83.52
2019-02-12T22:45:27.452Z,83.40
2019-02-12T22:47:54.906Z,83.29
2019-02-12T22:50:23.072Z,83.14
2019-02-12T22:52:50.553Z,83.08
2019-02-12T22:55:18.819Z,83.23
2019-02-12T22:57:49.200Z,83.22
2019-02-12T23:00:46.964Z,83.26
2019-02-12T23:03:14.424Z,82.82
2019-02-12T23:05:41.905Z,82.69
2019-02-12T23:08:09.392Z,82.68
2019-02-12T23:10:36.829Z,82.80
2019-02-12T23:13:04.341Z,82.73
2019-02-12T23:15:31.789Z,83.10
2019-02-12T23:18:01.291Z,83.42
2019-02-12T23:20:28.743Z,83.22
2019-02-12T23:22:56.257Z,83.18
2019-02-12T23:25:23.923Z,83.73
2019-02-12T23:27:57.206Z,83.26
2019-02-12T23:30:18.902Z,82.87
2019-02-12T23:32:46.404Z,83.04
2019-02-12T23:35:13.937Z,83.23
2019-02-12T23:37:41.409Z,82.99
2019-02-12T23:40:08.949Z,83.09
2019-02-12T23:42:36.463Z,83.20
2019-02-12T23:45:04.584Z,83.22
2019-02-12T23:47:32.111Z,83.02
2019-02-12T23:49:59.578Z,83.23
2019-02-12T23:52:27.031Z,83.74
2019-02-12T23:54:54.555Z,83.99
2019-02-12T23:57:22.014Z,83.46
2019-02-12T23:59:49.509Z,83.46
